createdAt,value
2022-10-18T06:10:33.937Z,56.3
2022-10-18T06:16:12.348Z,56.3
2022-10-18T06:21:53.337Z,56.2
2022-10-18T06:27:32.281Z,56.1
2022-10-18T06:33:14.005Z,56.1
2022-10-18T06:38:55.302Z,56.1
2022-10-18T06:44:50.644Z,56
2022-10-18T06:50:28.964Z,55.9
2022-10-18T06:56:29.226Z,55.9
2022-10-18T07:02:06.983Z,55.8
2022-10-18T07:07:45.890Z,55.8
2022-10-18T07:13:56.238Z,55.7
2022-10-18T07:19:43.703Z,55.6
2022-10-18T07:25:23.904Z,55.6
2022-10-18T07:31:05.219Z,55.5
2022-10-18T07:36:28.922Z,55.4
2022-10-18T07:42:08.066Z,55.4
2022-10-18T07:47:31.393Z,55.4
2022-10-18T07:53:12.319Z,55.3
2022-10-18T07:58:23.337Z,55.3
2022-10-18T08:03:45.332Z,55.2
2022-10-18T08:09:31.710Z,55.1
2022-10-18T08:15:09.736Z,55.1
2022-10-18T08:21:03.506Z,55
2022-10-18T08:26:41.956Z,55
2022-10-18T08:32:42.473Z,54.9
2022-10-18T08:38:05.298Z,54.9
2022-10-18T08:43:43.205Z,54.8
2022-10-18T08:49:44.319Z,54.8
2022-10-18T08:55:23.572Z,54.7
2022-10-18T09:01:05.743Z,54.8
2022-10-18T09:06:29.321Z,55.2
2022-10-18T09:12:07.395Z,55.7
2022-10-18T09:17:32.709Z,56.1
2022-10-18T09:22:59.105Z,56.6
2022-10-18T09:28:35.947Z,57.1
2022-10-18T09:33:58.955Z,57.5
2022-10-18T09:39:37.373Z,58
2022-10-18T09:45:16.686Z,58.5
2022-10-18T09:50:58.035Z,58.9
2022-10-18T09:56:20.947Z,59.4
2022-10-18T10:02:03.837Z,59.9
2022-10-18T10:07:45.186Z,60.3
2022-10-18T10:13:23.144Z,60.8
2022-10-18T10:19:03.028Z,61.1
2022-10-18T14:35:14.585Z,65.8
2022-10-18T14:41:05.565Z,65.8
2022-10-18T14:46:45.645Z,65.7
2022-10-18T14:52:26.614Z,65.6
2022-10-18T14:58:08.310Z,65.6
2022-10-18T15:03:45.079Z,65.6
2022-10-18T15:09:22.512Z,65.5
2022-10-18T15:15:25.817Z,65.4
2022-10-18T15:20:51.912Z,65.4
2022-10-18T15:26:55.428Z,65.3
2022-10-18T15:32:34.691Z,65.3
2022-10-18T15:38:17.263Z,65.2
2022-10-18T15:43:55.378Z,65.1
2022-10-18T15:49:36.704Z,65.1
2022-10-18T15:55:13.685Z,65.1
2022-10-18T16:00:53.531Z,65
2022-10-18T16:06:17.425Z,64.9
2022-10-18T16:11:39.605Z,64.9
2022-10-18T16:16:51.965Z,64.8
2022-10-18T16:22:20.158Z,64.8
2022-10-18T16:27:27.317Z,64.7
2022-10-18T16:32:50.249Z,64.7
2022-10-18T16:37:57.461Z,64.6
2022-10-18T16:43:23.165Z,64.6
2022-10-18T16:48:35.610Z,64.5
2022-10-18T16:53:45.243Z,64.4
2022-10-18T16:58:52.253Z,64.4
2022-10-18T17:03:47.700Z,64.3
2022-10-18T17:08:55.118Z,64.3
2022-10-18T17:14:01.647Z,64.3
2022-10-18T17:19:14.130Z,64.2
2022-10-18T17:24:20.650Z,64.1
2022-10-18T17:30:10.889Z,64.1
2022-10-18T17:35:32.570Z,64.1
2022-10-18T17:40:55.882Z,64
2022-10-18T17:46:21.233Z,63.9
2022-10-18T17:51:43.098Z,63.9
2022-10-18T17:57:14.389Z,63.8
2022-10-18T18:02:38.259Z,63.8
2022-10-18T18:07:32.738Z,63.7
2022-10-18T18:13:13.217Z,63.7
2022-10-18T18:18:47.086Z,63.6
2022-10-18T18:24:17.777Z,63.6
2022-10-18T18:29:30.655Z,63.5
2022-10-18T18:35:11.817Z,63.4
